• Join FlightAware (Why Join?)
  • Login
  • US Flag 
11:39PM EDT


 

Airport Tracker/Info


-or-


 

Live Flight TrackerFlight Track Log ✈ TAM3712 ✈ 28-Jul-2013 ✈ SBSP / CGH - SBBR / BSB

Flight Track Log - Related Links

Times and Time Zones

All times are in EDT time to prevent confusion due to time zone crossing. See the TAM3712 flight status page for this flight to view local times or setup timezone preferences in your user account.

Time Position Orientation Groundspeed Altitude Reporting Facility
EDT Latitude Longitude Course Direction KTS MPH feet Rate Location/Type
06:12PM -23.6250 -46.6590 111° Southeast  Level FlightAware
06:18PM -23.6230 -46.6600 335° Northwest 240 Level FlightAware
06:19PM -23.6220 -46.6600 360° North 360 Level FlightAware
06:22PM -23.3980 -46.6980 351° North  Level Estimated
06:22PM -23.6210 -46.6610 351° North  Level FlightAware
06:25PM -23.3805 -46.7018 351° North  Level Estimated
06:25PM -23.6200 -46.6610 351° North  Level FlightAware
06:25PM -23.6210 -46.6610 180° South 2,580 Level FlightAware
06:25PM -23.6260 -46.6570 144° Southeast 3,420 Level FlightAware
06:26PM -23.6470 -46.6410 145° Southeast 164 189 3,400 4,560 Climbing FlightAware
06:26PM -23.6510 -46.6320 116° Southeast 185 213 3,600 1,740 Climbing FlightAware
06:27PM -23.6340 -46.6060 54° Northeast 205 236 4,600 1,980 Climbing FlightAware
06:27PM -23.6140 -46.5900 36° Northeast 222 255 5,400 1,800 Climbing FlightAware
06:27PM -23.6100 -46.5810 64° Northeast 222 255 5,600 600 Climbing FlightAware
06:28PM -23.6030 -46.5490 77° East 257 296 5,800 240 Climbing FlightAware
06:28PM -23.5980 -46.5250 77° East 279 321 5,800 1,620 Level FlightAware
06:28PM -23.5900 -46.4860 77° East 285 328 7,000 2,760 Climbing FlightAware
06:29PM -23.5820 -46.4490 77° East 290 334 8,400 3,060 Climbing FlightAware
06:29PM -23.5730 -46.4100 76° East 294 338 9,800 2,640 Climbing FlightAware
06:30PM -23.5470 -46.3510 64° Northeast 315 362 11,400 2,580 Climbing FlightAware
06:30PM -23.5270 -46.3430 20° North 303 349 12,300 3,840 Climbing FlightAware
06:31PM -23.5120 -46.3430 360° North 288 331 13,200 2,520 Climbing FlightAware
06:31PM -23.4560 -46.3650 340° North 297 342 14,700 1,620 Climbing FlightAware
06:32PM -23.4040 -46.3870 339° North 331 381 15,500 1,260 Climbing FlightAware
06:33PM -23.3490 -46.4090 340° North 362 417 16,300 1,440 Climbing FlightAware
06:33PM -23.2810 -46.4350 341° North 384 442 17,400 1,800 Climbing FlightAware
06:34PM -23.2020 -46.4500 350° North 398 458 18,900 1,680 Climbing FlightAware
06:35PM -23.1280 -46.4630 351° North 417 480 19,800 1,860 Climbing FlightAware
06:35PM -23.0450 -46.4770 351° North 415 478 21,500 2,220 Climbing FlightAware
06:36PM -22.9660 -46.4910 351° North 414 476 23,000 1,800 Climbing FlightAware
06:37PM -22.8820 -46.5060 351° North 428 493 24,100 1,500 Climbing FlightAware
06:37PM -22.8190 -46.5170 351° North 436 502 24,900 1,800 Climbing FlightAware
06:38PM -22.7330 -46.5330 350° North 432 497 26,400 1,560 Climbing FlightAware
06:39PM -22.6470 -46.5480 351° North 445 512 27,200 1,200 Climbing FlightAware
06:39PM -22.5850 -46.5590 351° North 453 521 27,900 1,320 Climbing FlightAware
06:40PM -22.5020 -46.5730 351° North 456 525 28,800 1,080 Climbing FlightAware
06:41PM -22.4070 -46.5900 351° North 468 539 29,500 1,080 Climbing FlightAware
06:41PM -22.3190 -46.6060 350° North 473 544 30,400 1,440 Climbing FlightAware
06:42PM -22.2220 -46.6230 351° North 470 541 31,600 1,380 Climbing FlightAware
06:43PM -22.1420 -46.6370 351° North 470 541 32,400 1,320 Climbing FlightAware
06:44PM -21.9570 -46.6690 351° North 464 534 34,400 1,380 Climbing FlightAware
06:45PM -21.8780 -46.6830 351° North 460 529 35,200 1,020 Climbing FlightAware
06:45PM -21.7790 -46.7000 351° North 465 535 35,900 780 Climbing FlightAware
06:46PM -21.7020 -46.7140 350° North 469 540 36,300 660 Climbing FlightAware
06:47PM -21.6140 -46.7290 351° North 472 543 36,800 480 Climbing FlightAware
06:47PM -21.5290 -46.7440 351° North 470 541 37,000 120 Climbing FlightAware
06:48PM -21.4460 -46.7590 350° North 469 540 37,000  Level FlightAware
06:49PM -21.3660 -46.7730 351° North 469 540 37,000  Level FlightAware
06:49PM -21.2730 -46.7880 351° North 467 537 37,000  Level FlightAware
06:50PM -21.1850 -46.8040 350° North 465 535 37,000  Level FlightAware
06:51PM -21.0910 -46.8200 351° North 464 534 37,000  Level FlightAware
06:52PM -20.9980 -46.8360 351° North 464 534 37,000  Level FlightAware
06:52PM -20.9150 -46.8500 351° North 464 534 37,000  Level FlightAware
06:53PM -20.8210 -46.8670 350° North 465 535 37,000  Level FlightAware
06:53PM -20.7530 -46.8780 351° North 465 535 37,000  Level FlightAware
06:54PM -20.6660 -46.9090 342° North 443 510 37,000  Level FlightAware
06:55PM -20.5940 -46.9560 329° Northwest 445 512 37,000  Level FlightAware
06:56PM -20.5140 -47.0050 330° Northwest 447 514 37,000  Level FlightAware
06:56PM -20.4400 -47.0510 330° Northwest 448 516 37,000  Level FlightAware
06:57PM -20.3690 -47.0940 330° Northwest 448 516 37,000  Level FlightAware
06:58PM -20.2900 -47.1430 330° Northwest 449 517 37,000  Level FlightAware
06:58PM -20.2320 -47.1790 330° Northwest 449 517 37,000  Level FlightAware
06:59PM -20.1530 -47.2280 330° Northwest 449 517 37,000  Level FlightAware
07:00PM -20.0790 -47.2740 330° Northwest 449 517 37,000  Level FlightAware
07:00PM -20.0170 -47.3120 330° Northwest 449 517 37,000  Level FlightAware
07:01PM -19.9460 -47.3550 330° Northwest 449 517 37,000  Level FlightAware
07:02PM -19.8620 -47.4080 329° Northwest 449 517 37,000  Level FlightAware
07:02PM -19.8000 -47.4450 331° Northwest 449 517 37,000  Level FlightAware
07:03PM -19.7250 -47.4920 329° Northwest 452 520 37,000  Level FlightAware
07:04PM -19.6510 -47.5360 331° Northwest 452 520 37,000  Level FlightAware
07:04PM -19.5710 -47.5860 330° Northwest 454 522 37,000  Level FlightAware
07:05PM -19.5010 -47.6280 331° Northwest 456 525 37,000  Level FlightAware
07:06PM -19.4200 -47.6780 330° Northwest 457 526 37,000  Level FlightAware
07:06PM -19.3390 -47.7270 330° Northwest 457 526 37,000  Level FlightAware
07:07PM -19.2730 -47.7670 330° Northwest 457 526 37,000  Level FlightAware
07:08PM -19.1990 -47.8130 330° Northwest 457 526 37,000  Level FlightAware
07:08PM -19.1240 -47.8580 330° Northwest 456 525 37,000  Level FlightAware
07:09PM -19.0500 -47.9030 330° Northwest 457 526 37,000  Level FlightAware
07:10PM -18.9820 -47.9440 330° Northwest 456 525 37,000  Level FlightAware
07:10PM -18.9100 -47.9880 330° Northwest 457 526 37,000  Level FlightAware
07:11PM -18.8320 -48.0350 330° Northwest 459 528 37,000  Level FlightAware
07:12PM -18.7520 -48.0830 330° Northwest 458 527 37,000  Level FlightAware
07:13PM -18.6680 -48.1340 330° Northwest 459 528 37,000  Level FlightAware
07:13PM -18.5990 -48.1760 330° Northwest 459 528 37,000  Level FlightAware
07:14PM -18.5170 -48.2250 330° Northwest 456 525 37,000  Level FlightAware
07:14PM -18.4550 -48.2630 330° Northwest 454 522 37,000  Level FlightAware
07:15PM -18.3820 -48.3070 330° Northwest 450 518 37,000  Level FlightAware
07:16PM -18.3000 -48.3560 330° Northwest 447 514 37,000  Level FlightAware
07:16PM -18.2370 -48.3930 331° Northwest 446 513 37,000 -120 Level FlightAware
07:17PM -18.1610 -48.4360 332° Northwest 453 521 36,900  Descending FlightAware
07:18PM -18.0460 -48.4440 356° North 468 539 37,000 60 Climbing FlightAware
07:19PM -17.9460 -48.4420 North 468 539 37,000 -540 Level FlightAware
07:20PM -17.8590 -48.4410 North 476 548 36,300 -2,100 Descending FlightAware
07:20PM -17.7720 -48.4390 North 483 556 34,200 -2,040 Descending FlightAware
07:21PM -17.6620 -48.4370 North 476 548 33,200 -2,160 Descending FlightAware
07:21PM -17.6200 -48.4360 North 31,700 -2,820 Descending FlightAware
07:22PM -17.4940 -48.4340 North 451 519 29,600 -1,380 Descending FlightAware
07:23PM -17.4120 -48.4330 North 451 519 29,400 -1,980 Descending FlightAware
07:24PM -17.3330 -48.4310 North 439 505 27,000 -2,820 Descending FlightAware
07:25PM -17.2220 -48.4290 North 429 494 25,200 -2,040 Descending FlightAware
07:25PM -17.1420 -48.4280 North 421 484 23,800 -2,160 Descending FlightAware
07:26PM -17.0450 -48.4260 North 412 474 22,200 -1,800 Descending FlightAware
07:27PM -16.9860 -48.4250 North 404 465 21,200 -1,800 Descending FlightAware
07:27PM -16.9010 -48.4260 359° North 394 453 19,800 -1,980 Descending FlightAware
07:28PM -16.8230 -48.4350 354° North 374 430 18,500 -1,800 Descending FlightAware
07:29PM -16.7550 -48.4420 354° North 363 418 17,400 -1,620 Descending FlightAware
07:29PM -16.6900 -48.4480 355° North 358 412 16,400 -1,620 Descending FlightAware
07:30PM -16.6240 -48.4620 349° North 358 412 15,300 -1,680 Descending FlightAware
07:31PM -16.5500 -48.4770 349° North 357 411 14,100 -1,560 Descending FlightAware
07:31PM -16.4900 -48.4900 348° North 353 406 13,100 -1,680 Descending FlightAware
07:32PM -16.4160 -48.5050 349° North 344 396 11,800 -1,500 Descending FlightAware
07:33PM -16.3360 -48.5210 349° North 329 379 10,700 -960 Descending FlightAware
07:34PM -16.2820 -48.5330 348° North 301 346 10,300 -660 Descending FlightAware
07:35PM -16.2200 -48.5190 12° North 287 330 9,800 -600 Descending FlightAware
07:35PM -16.1980 -48.4930 49° Northeast 290 334 9,600 -600 Descending FlightAware
07:35PM -16.1840 -48.4760 49° Northeast 291 335 9,400 -540 Descending FlightAware
07:36PM -16.1590 -48.4460 49° Northeast 292 336 9,200 -480 Descending FlightAware
07:36PM -16.1370 -48.4180 51° Northeast 292 336 9,000 -600 Descending FlightAware
07:37PM -16.1110 -48.3860 50° Northeast 289 333 8,700 -600 Descending FlightAware
07:37PM -16.0900 -48.3590 51° Northeast 287 330 8,500 -660 Descending FlightAware
07:38PM -16.0640 -48.3270 50° Northeast 286 329 8,100 -1,020 Descending FlightAware
07:38PM -16.0390 -48.2950 51° Northeast 270 311 7,500 -1,200 Descending FlightAware
07:38PM -16.0200 -48.2720 49° Northeast 252 290 7,000 -1,560 Descending FlightAware
07:39PM -15.9980 -48.2440 51° Northeast 251 289 6,100 -1,140 Descending FlightAware
07:39PM -15.9800 -48.2220 50° Northeast 231 266 6,000  Descending FlightAware
07:40PM -15.9660 -48.2050 49° Northeast 224 258 6,100 120 Climbing FlightAware
07:40PM -15.9530 -48.1890 50° Northeast 221 254 6,100  Level FlightAware
07:40PM -15.9370 -48.1690 50° Northeast 219 252 6,100  Level FlightAware
07:41PM -15.9270 -48.1570 49° Northeast 220 253 6,100  Level FlightAware
07:41PM -15.9100 -48.1360 50° Northeast 220 253 6,100  Level FlightAware
07:42PM -15.8930 -48.1100 56° Northeast 215 247 6,100 -360 Level FlightAware
07:42PM -15.8900 -48.0850 83° East 207 238 5,800 -840 Descending FlightAware
07:42PM -15.8880 -48.0610 85° East 192 221 5,400 -900 Descending FlightAware
07:43PM -15.8880 -48.0490 90° East 183 211 5,200 -900 Descending FlightAware
07:43PM -15.8860 -48.0270 85° East 161 185 4,800 -900 Descending FlightAware
07:44PM -15.8850 -48.0050 87° East 148 170 4,400 -780 Descending FlightAware
07:44PM -15.8840 -47.9870 87° East 144 166 4,100 -660 Descending FlightAware
07:45PM -15.8820 -47.9670 84° East 144 166 3,800 -720 Descending FlightAware
07:45PM -15.8810 -47.9470 87° East 143 165 3,400 -660 Descending FlightAware
07:45PM -15.8800 -47.9320 86° East 142 163 3,200 -180 Descending FlightAware
07:46PM -15.8790 -47.9190 85° East 39 45  Descending FlightAware
07:46PM -15.8780 -47.9170 63° Northeast 142 163 3,200 5,160 Climbing FlightAware
07:47PM -15.8770 -47.9030 86° East 142 163 3,200  Level FlightAware
07:47PM -15.8750 -47.9160 279° West 142 163 3,200  Level FlightAware
07:48PM -15.8730 -47.9160 360° North 142 163 3,200  Level FlightAware
07:48PM -15.8720 -47.9010 86° East 142 163 3,200  Level FlightAware
07:49PM -15.8710 -47.9160 274° West 15 17  Descending FlightAware
07:50PM -15.8700 -47.9160 360° North 142 163 3,200 1,740 Climbing FlightAware
07:51PM -15.8700 -47.9020 90° East 142 163 3,200  Level FlightAware
07:51PM -15.8700 -47.9160 270° West 142 163 3,200  Level FlightAware
07:51PM -15.8700 -47.9170 270° West 18 21 -5,100 Descending FlightAware
07:52PM -15.8690 -47.9170 360° North 27 31  Level FlightAware
07:52PM -15.8690 -47.9190 270° West 26 30  Level FlightAware
07:53PM -15.8680 -47.9200 316° Northwest 11 13  Level FlightAware
07:57PM -15.8626 -47.9127 52° Northeast  Level Estimated
07:59PM -15.8626 -47.9127 128° Southeast  Level Estimated
08:00PM -15.8626 -47.9127 128° Southeast  Level Estimated
08:01PM -15.8626 -47.9127 128° Southeast  Level Estimated
08:02PM -15.8626 -47.9127 128° Southeast  Level Estimated
08:03PM -15.8626 -47.9127 128° Southeast  Level Estimated
08:04PM -15.8626 -47.9127 128° Southeast  Level Estimated
08:05PM -15.8626 -47.9127 128° Southeast  Level Estimated
08:06PM -15.8626 -47.9127 128° Southeast  Level Estimated
08:07PM -15.8626 -47.9127 128° Southeast  Level Estimated
08:08PM -15.8626 -47.9127 128° Southeast  Level Estimated
08:09PM -15.8626 -47.9127 128° Southeast  Level Estimated
08:10PM -15.8626 -47.9127 128° Southeast  Level Estimated
08:11PM -15.8626 -47.9127 128° Southeast  Level Estimated
08:12PM -15.8626 -47.9127 128° Southeast  Level Estimated
08:13PM -15.8626 -47.9127 128° Southeast  Level Estimated
08:14PM -15.8626 -47.9127 128° Southeast  Level Estimated
08:15PM -15.8626 -47.9127 128° Southeast  Level Estimated
08:16PM -15.8626 -47.9127 128° Southeast  Level Estimated
08:17PM -15.8626 -47.9127 128° Southeast  Level Estimated